Time;durP1;ratioP1;P1;durP2;ratioP2;P2;SDS_P1;SDS_P2;PMS_P1;PMS_P2;Temp;Humidity;BMP_temperature;BMP_pressure;BME280_temperature;BME280_humidity;BME280_pressure;Samples;Min_cycle;Max_cycle;Signal;HPM_P1;HPM_P2
2023/08/13 00:01:23;;;;;;;45.60;38.70;;;;;;;20.29;95.65;98232.00;5071152;28;21198;-76
2023/08/13 00:03:51;;;;;;;25.93;23.87;;;;;;;20.24;96.12;98225.63;5070941;28;20995;-75
2023/08/13 00:06:18;;;;;;;37.27;30.20;;;;;;;20.32;95.69;98216.91;5071046;28;20450;-75
2023/08/13 00:08:45;;;;;;;24.60;22.80;;;;;;;20.35;95.55;98228.22;5071919;28;20886;-75
2023/08/13 00:11:12;;;;;;;30.47;25.10;;;;;;;20.46;95.35;98231.94;5070965;28;20572;-76
2023/08/13 00:13:39;;;;;;;48.47;33.93;;;;;;;20.46;95.02;98231.94;5071104;28;20465;-76
2023/08/13 00:16:07;;;;;;;27.23;25.13;;;;;;;20.41;95.25;98226.38;5071022;28;20531;-76
2023/08/13 00:18:34;;;;;;;93.03;37.87;;;;;;;20.46;95.04;98220.94;5070993;28;20970;-75
2023/08/13 00:21:02;;;;;;;31.00;25.27;;;;;;;20.36;95.19;98209.81;5070720;28;20450;-75
2023/08/13 00:23:29;;;;;;;45.70;32.63;;;;;;;20.52;95.37;98222.63;5070708;28;20488;-75
2023/08/13 00:25:55;;;;;;;29.43;26.90;;;;;;;20.37;95.42;98212.34;5071180;28;20485;-75
2023/08/13 00:28:22;;;;;;;32.63;27.70;;;;;;;20.45;95.33;98225.63;5070489;28;20479;-76
2023/08/13 00:30:49;;;;;;;27.73;25.63;;;;;;;20.38;95.83;98226.91;5070974;28;20446;-75
2023/08/13 00:33:16;;;;;;;66.80;29.57;;;;;;;20.56;95.34;98229.25;5070596;28;20540;-75
2023/08/13 00:35:42;;;;;;;161.70;41.33;;;;;;;20.42;95.67;98225.31;5070570;28;20486;-75
2023/08/13 00:38:11;;;;;;;120.27;36.30;;;;;;;20.36;95.88;98227.13;5070684;28;20465;-75
2023/08/13 00:40:37;;;;;;;137.50;44.33;;;;;;;20.45;95.30;98235.78;5070801;28;20437;-75
2023/08/13 00:43:04;;;;;;;25.50;23.67;;;;;;;20.32;95.84;98226.00;5070394;28;21062;-75
2023/08/13 00:45:32;;;;;;;52.40;35.17;;;;;;;20.42;95.38;98225.31;5070615;28;20454;-75
2023/08/13 00:48:00;;;;;;;26.47;24.87;;;;;;;20.38;95.27;98225.00;5070324;28;20540;-75
2023/08/13 00:50:26;;;;;;;131.77;45.13;;;;;;;20.32;95.70;98233.41;5070780;28;20525;-75
2023/08/13 00:52:53;;;;;;;24.83;22.93;;;;;;;20.39;95.66;98234.06;5070656;28;20545;-77
2023/08/13 00:55:22;;;;;;;59.23;41.00;;;;;;;20.30;95.89;98228.16;5070302;28;21034;-75
2023/08/13 00:57:48;;;;;;;24.93;23.33;;;;;;;20.35;95.52;98224.66;5070565;28;20496;-76
2023/08/13 01:00:16;;;;;;;100.77;43.80;;;;;;;20.25;95.14;98225.38;5070408;28;20437;-75
2023/08/13 01:02:43;;;;;;;144.37;41.17;;;;;;;20.06;96.19;98224.91;5069683;28;20479;-75
2023/08/13 01:05:10;;;;;;;73.83;38.87;;;;;;;20.00;96.73;98223.19;5070352;28;20454;-76
2023/08/13 01:07:44;;;;;;;142.43;47.70;;;;;;;20.00;96.75;98225.94;5070635;28;20466;-75
2023/08/13 01:10:16;;;;;;;30.67;27.97;;;;;;;20.20;95.73;98230.81;5070083;28;20450;-76
2023/08/13 01:12:49;;;;;;;114.40;47.70;;;;;;;20.06;95.60;98222.16;5069830;28;20466;-76
2023/08/13 01:15:19;;;;;;;78.47;44.63;;;;;;;20.02;96.45;98222.94;5069635;28;20467;-76
2023/08/13 01:17:49;;;;;;;27.40;25.60;;;;;;;19.91;96.23;98234.91;5070019;28;20498;-76
2023/08/13 01:20:18;;;;;;;61.30;32.90;;;;;;;19.77;97.05;98229.81;5070177;28;20442;-76
2023/08/13 01:22:50;;;;;;;28.30;26.07;;;;;;;19.84;97.50;98231.50;5069943;28;20571;-76
2023/08/13 01:25:18;;;;;;;21.43;19.83;;;;;;;20.12;95.79;98226.63;5069619;28;20444;-77
2023/08/13 01:27:49;;;;;;;23.83;22.10;;;;;;;20.21;94.73;98223.41;5069455;28;20480;-76
2023/08/13 01:30:19;;;;;;;16.00;14.60;;;;;;;20.18;94.82;98222.00;5069999;28;20446;-76
2023/08/13 01:32:54;;;;;;;17.77;16.47;;;;;;;20.23;94.74;98237.72;5070084;28;20906;-76
2023/08/13 01:35:23;;;;;;;24.33;22.37;;;;;;;20.09;95.20;98220.81;5069111;28;20842;-76
2023/08/13 01:37:51;;;;;;;25.93;23.70;;;;;;;20.14;94.72;98229.13;5069913;28;20552;-76
2023/08/13 01:40:18;;;;;;;22.43;20.63;;;;;;;19.97;95.90;98222.88;5070217;28;20463;-75
2023/08/13 01:42:45;;;;;;;24.50;22.40;;;;;;;19.92;95.99;98212.66;5069511;28;20514;-76
2023/08/13 01:45:12;;;;;;;23.77;21.53;;;;;;;19.94;95.57;98218.72;5069784;28;20525;-76
2023/08/13 01:47:39;;;;;;;19.20;17.80;;;;;;;19.96;95.06;98222.03;5069581;28;20826;-76
2023/08/13 01:50:06;;;;;;;28.67;26.23;;;;;;;19.89;95.53;98221.41;5069859;28;20471;-76
2023/08/13 01:52:33;;;;;;;88.33;27.20;;;;;;;19.84;95.67;98229.59;5069299;28;20521;-75
2023/08/13 01:55:02;;;;;;;19.87;18.30;;;;;;;19.94;95.22;98235.22;5069567;28;20798;-75
2023/08/13 01:57:28;;;;;;;22.83;20.07;;;;;;;19.92;95.00;98220.91;5069535;28;20513;-75
2023/08/13 01:59:55;;;;;;;22.17;20.67;;;;;;;19.83;95.46;98216.94;5069591;28;20521;-76
2023/08/13 02:02:22;;;;;;;24.33;22.37;;;;;;;19.73;95.75;98216.84;5068984;28;20493;-76
2023/08/13 02:04:48;;;;;;;23.30;21.63;;;;;;;19.76;95.57;98210.84;5069229;28;20530;-76
2023/08/13 02:07:15;;;;;;;18.23;17.07;;;;;;;19.68;95.91;98225.03;5069209;28;20474;-77
2023/08/13 02:09:42;;;;;;;20.23;18.43;;;;;;;19.74;95.84;98229.50;5069820;28;20450;-76
2023/08/13 02:12:10;;;;;;;21.13;18.63;;;;;;;19.77;95.73;98229.81;5070335;28;20484;-76
2023/08/13 02:14:37;;;;;;;17.23;16.13;;;;;;;19.67;95.38;98235.16;5073375;28;20455;-76
2023/08/13 02:17:04;;;;;;;18.13;16.77;;;;;;;19.69;95.50;98237.66;5073245;28;20506;-76
2023/08/13 02:19:31;;;;;;;16.83;15.53;;;;;;;19.65;95.62;98244.75;5073518;28;20532;-75
2023/08/13 02:21:57;;;;;;;27.20;19.50;;;;;;;19.74;95.09;98246.81;5073332;28;20893;-75
2023/08/13 02:24:24;;;;;;;35.23;21.57;;;;;;;19.59;95.54;98232.03;5073568;28;20448;-76
2023/08/13 02:26:51;;;;;;;56.83;23.33;;;;;;;19.52;95.69;98234.13;5072942;28;20558;-75
2023/08/13 02:29:19;;;;;;;64.90;26.10;;;;;;;19.54;95.56;98230.06;5073156;28;20453;-76
2023/08/13 02:31:46;;;;;;;64.33;23.10;;;;;;;19.36;96.09;98227.59;5073193;28;20572;-74
2023/08/13 02:34:12;;;;;;;67.20;26.70;;;;;;;19.34;96.30;98240.75;5072703;28;20507;-76
2023/08/13 02:36:39;;;;;;;19.10;17.63;;;;;;;19.30;96.46;98240.41;5072737;28;20982;-76
2023/08/13 02:39:06;;;;;;;91.20;34.10;;;;;;;19.37;96.09;98235.59;5073319;28;20855;-75
2023/08/13 02:41:33;;;;;;;49.37;27.93;;;;;;;19.39;96.59;98232.59;5073269;28;20485;-76
2023/08/13 02:44:00;;;;;;;55.67;28.07;;;;;;;19.42;96.84;98221.94;5072413;28;21080;-76
2023/08/13 02:46:28;;;;;;;39.93;25.50;;;;;;;19.54;96.68;98220.97;5072835;28;21215;-76
2023/08/13 02:48:55;;;;;;;40.93;27.80;;;;;;;19.53;97.05;98224.81;5072832;28;21165;-75
2023/08/13 02:51:23;;;;;;;112.80;33.63;;;;;;;19.48;96.79;98227.50;5072110;28;20497;-75
2023/08/13 02:53:50;;;;;;;118.53;36.00;;;;;;;19.53;96.92;98219.31;5071784;28;20475;-75
2023/08/13 02:56:18;;;;;;;149.43;40.47;;;;;;;19.48;96.79;98216.50;5072730;28;20492;-76
2023/08/13 02:58:45;;;;;;;57.60;31.23;;;;;;;19.51;96.94;98221.50;5072944;28;20489;-76
2023/08/13 03:01:12;;;;;;;32.13;27.57;;;;;;;19.44;97.18;98214.28;5071980;28;20446;-76
2023/08/13 03:03:40;;;;;;;78.77;37.03;;;;;;;19.36;97.40;98216.63;5072059;28;20493;-75
2023/08/13 03:06:07;;;;;;;58.80;32.97;;;;;;;19.44;97.17;98219.75;5072403;28;20451;-76
2023/08/13 03:08:34;;;;;;;40.77;32.07;;;;;;;19.50;97.09;98222.53;5072245;28;20549;-76
2023/08/13 03:11:01;;;;;;;28.87;26.00;;;;;;;19.58;97.13;98216.66;5072704;28;20538;-75
2023/08/13 03:13:27;;;;;;;97.63;37.77;;;;;;;19.48;97.44;98214.59;5071681;28;21232;-76
2023/08/13 03:15:54;;;;;;;68.27;30.17;;;;;;;19.57;96.77;98218.56;5072037;28;20452;-75
2023/08/13 03:18:21;;;;;;;86.30;32.30;;;;;;;19.55;97.00;98215.25;5072358;28;20462;-76
2023/08/13 03:20:49;;;;;;;75.80;28.43;;;;;;;19.65;96.78;98214.53;5072659;28;20531;-76
2023/08/13 03:23:16;;;;;;;23.83;22.07;;;;;;;19.53;97.27;98220.16;5072055;28;20567;-75
2023/08/13 03:25:42;;;;;;;92.40;33.30;;;;;;;19.67;96.62;98215.13;5071074;28;20477;-76
2023/08/13 03:28:09;;;;;;;22.40;20.77;;;;;;;19.52;97.30;98210.25;5072004;28;20463;-75
2023/08/13 03:30:36;;;;;;;21.97;20.37;;;;;;;19.65;97.09;98217.28;5071992;28;20492;-75
2023/08/13 03:33:03;;;;;;;45.33;28.27;;;;;;;19.85;96.60;98230.41;5072121;28;20494;-76
2023/08/13 03:35:30;;;;;;;64.30;29.03;;;;;;;19.89;95.70;98224.16;5071844;28;20524;-75
2023/08/13 03:37:58;;;;;;;24.60;22.50;;;;;;;19.73;96.50;98219.59;5072050;28;20497;-75
2023/08/13 03:40:25;;;;;;;20.50;18.93;;;;;;;19.57;97.44;98218.56;5072014;28;20508;-76
2023/08/13 03:42:52;;;;;;;30.20;27.50;;;;;;;19.92;96.07;98215.41;5071947;28;20572;-76
2023/08/13 03:45:19;;;;;;;21.00;19.43;;;;;;;19.81;96.15;98218.31;5071687;28;20809;-76
2023/08/13 03:47:45;;;;;;;18.70;17.23;;;;;;;19.70;96.87;98222.84;5071630;28;21027;-75
2023/08/13 03:50:12;;;;;;;25.60;23.50;;;;;;;19.91;96.40;98215.66;5072102;28;20460;-76
2023/08/13 03:52:39;;;;;;;19.33;18.03;;;;;;;19.92;95.72;98209.91;5071776;28;20450;-75
2023/08/13 03:55:08;;;;;;;26.27;24.00;;;;;;;20.09;95.24;98213.41;5071566;28;20499;-76
2023/08/13 03:57:35;;;;;;;16.47;15.37;;;;;;;20.07;95.25;98218.34;5071643;28;20834;-76
2023/08/13 04:00:02;;;;;;;23.73;21.83;;;;;;;20.04;95.67;98220.75;5071544;28;20525;-76
2023/08/13 04:02:32;;;;;;;29.90;27.20;;;;;;;20.07;95.57;98212.00;5071751;28;20450;-75
2023/08/13 04:04:59;;;;;;;18.17;16.90;;;;;;;20.00;95.44;98219.63;5071337;28;20483;-75
2023/08/13 04:07:26;;;;;;;17.10;15.90;;;;;;;19.91;95.70;98227.47;5071292;28;20831;-76
2023/08/13 04:09:53;;;;;;;16.53;15.43;;;;;;;19.93;95.51;98224.47;5071112;28;20445;-75
2023/08/13 04:12:21;;;;;;;14.97;14.00;;;;;;;19.90;96.01;98223.06;5071080;28;20508;-75
2023/08/13 04:14:48;;;;;;;16.47;15.23;;;;;;;19.88;96.31;98229.91;5070995;28;20538;-76
2023/08/13 04:17:15;;;;;;;16.67;15.50;;;;;;;19.84;96.04;98224.09;5071197;28;20554;-76
2023/08/13 04:19:42;;;;;;;15.20;14.20;;;;;;;19.81;96.38;98207.31;5070535;28;20481;-75
2023/08/13 04:22:08;;;;;;;15.87;14.77;;;;;;;19.89;95.63;98213.16;5070451;28;20447;-75
2023/08/13 04:24:35;;;;;;;15.53;14.40;;;;;;;19.89;95.77;98215.09;5069856;28;20556;-75
2023/08/13 04:27:02;;;;;;;14.47;13.47;;;;;;;19.88;95.58;98213.44;5070422;28;20463;-75
2023/08/13 04:29:30;;;;;;;14.10;13.10;;;;;;;19.82;95.93;98215.28;5070225;28;20947;-76
2023/08/13 04:31:57;;;;;;;14.43;13.43;;;;;;;19.99;95.50;98216.03;5070138;28;20446;-75
2023/08/13 04:34:24;;;;;;;14.23;13.23;;;;;;;20.03;94.98;98217.19;5069977;28;20450;-76
2023/08/13 04:36:51;;;;;;;14.03;12.93;;;;;;;20.00;95.07;98206.72;5069575;28;20465;-76
2023/08/13 04:39:17;;;;;;;16.07;14.97;;;;;;;19.85;95.52;98214.75;5070597;28;20549;-76
2023/08/13 04:41:44;;;;;;;21.80;19.93;;;;;;;19.79;96.20;98210.31;5070168;28;20532;-75
2023/08/13 04:44:11;;;;;;;16.67;15.47;;;;;;;19.82;95.82;98214.47;5069524;28;20540;-75
2023/08/13 04:46:39;;;;;;;311.67;30.47;;;;;;;19.79;95.32;98204.84;5069928;28;20973;-75
2023/08/13 04:49:06;;;;;;;16.10;14.90;;;;;;;19.56;96.21;98205.09;5069707;28;20456;-76
2023/08/13 04:51:33;;;;;;;18.17;16.40;;;;;;;19.51;96.23;98205.84;5070401;28;20496;-76
2023/08/13 04:53:59;;;;;;;14.93;13.93;;;;;;;19.54;96.17;98210.84;5069660;28;20527;-75
2023/08/13 04:56:26;;;;;;;15.50;14.40;;;;;;;19.60;95.62;98204.31;5069596;28;20467;-76
2023/08/13 04:58:53;;;;;;;75.27;18.47;;;;;;;19.54;95.96;98213.56;5069480;28;20486;-75
2023/08/13 05:01:20;;;;;;;15.10;14.13;;;;;;;19.50;95.77;98228.03;5069695;28;20509;-76
2023/08/13 05:03:48;;;;;;;49.37;17.70;;;;;;;19.58;95.83;98225.72;5069604;28;20483;-76
2023/08/13 05:06:15;;;;;;;28.93;16.73;;;;;;;19.64;95.54;98234.84;5069667;28;20451;-76
2023/08/13 05:08:42;;;;;;;40.33;19.50;;;;;;;19.65;95.32;98233.75;5069755;28;20471;-76
2023/08/13 05:11:09;;;;;;;54.40;23.63;;;;;;;19.67;95.40;98232.44;5069800;28;20463;-76
2023/08/13 05:13:36;;;;;;;78.57;23.03;;;;;;;19.50;95.71;98217.88;5068970;28;20461;-76
2023/08/13 05:16:03;;;;;;;298.07;37.40;;;;;;;19.26;96.58;98233.78;5069188;28;20443;-76
2023/08/13 05:18:29;;;;;;;237.63;32.90;;;;;;;19.17;96.75;98235.28;5069492;28;20536;-76
2023/08/13 05:20:58;;;;;;;354.93;39.97;;;;;;;19.11;96.95;98236.31;5069218;28;20533;-76
2023/08/13 05:23:24;;;;;;;224.77;36.97;;;;;;;19.06;97.50;98233.50;5069351;28;20497;-76
2023/08/13 05:25:51;;;;;;;112.67;26.87;;;;;;;19.03;97.80;98231.25;5069761;28;20499;-76
2023/08/13 05:28:18;;;;;;;92.13;28.20;;;;;;;19.18;97.59;98238.84;5069642;28;20454;-76
2023/08/13 05:30:45;;;;;;;30.33;22.30;;;;;;;19.19;97.49;98241.34;5069647;28;20811;-78
2023/08/13 05:33:12;;;;;;;67.50;23.80;;;;;;;19.12;97.78;98240.72;5069221;28;20926;-78
2023/08/13 05:35:39;;;;;;;105.07;32.40;;;;;;;19.08;97.74;98237.66;5069697;28;20541;-78
2023/08/13 05:38:07;;;;;;;107.13;33.87;;;;;;;18.97;98.28;98245.97;5069428;28;20470;-78
2023/08/13 05:40:34;;;;;;;63.50;31.10;;;;;;;19.04;98.63;98235.66;5069466;28;20584;-78
2023/08/13 05:43:02;;;;;;;35.13;27.27;;;;;;;19.15;97.93;98239.38;5069470;28;20496;-77
2023/08/13 05:45:28;;;;;;;107.70;34.20;;;;;;;18.99;98.36;98227.34;5069245;28;20449;-77
2023/08/13 05:47:56;;;;;;;75.03;27.87;;;;;;;19.22;98.38;98243.59;5068448;28;21041;-76
2023/08/13 05:50:24;;;;;;;47.73;25.37;;;;;;;19.35;97.70;98243.25;5068789;28;20524;-77
2023/08/13 05:52:50;;;;;;;85.00;28.60;;;;;;;19.32;97.91;98251.16;5089620;28;20437;-77
2023/08/13 05:55:18;;;;;;;22.47;20.40;;;;;;;19.34;97.90;98251.72;5089412;28;20458;-77
2023/08/13 05:57:46;;;;;;;74.03;29.13;;;;;;;19.51;97.50;98252.53;5089207;28;20973;-77
2023/08/13 06:00:13;;;;;;;75.00;32.10;;;;;;;19.40;97.67;98246.06;5089289;28;20874;-77
2023/08/13 06:02:40;;;;;;;37.77;25.40;;;;;;;19.39;98.24;98252.63;5088833;28;20477;-77
2023/08/13 06:05:08;;;;;;;33.53;27.53;;;;;;;19.63;97.31;98249.66;5089063;28;21016;-77
2023/08/13 06:07:35;;;;;;;32.87;29.20;;;;;;;19.61;97.90;98249.09;5088924;28;20496;-78
2023/08/13 06:10:03;;;;;;;28.10;25.40;;;;;;;19.62;97.80;98248.00;5089554;28;20533;-77
2023/08/13 06:12:32;;;;;;;34.10;30.20;;;;;;;19.69;97.16;98238.50;5088879;28;20444;-77
2023/08/13 06:14:59;;;;;;;31.03;28.00;;;;;;;19.65;97.31;98244.75;5088869;28;20956;-77
2023/08/13 06:17:26;;;;;;;21.80;20.10;;;;;;;19.64;97.52;98240.34;5089374;28;20534;-77
2023/08/13 06:19:53;;;;;;;22.03;20.43;;;;;;;19.77;97.20;98246.28;5089665;28;20495;-77
2023/08/13 06:22:20;;;;;;;24.37;22.37;;;;;;;19.87;97.19;98241.97;5089373;28;20443;-77
2023/08/13 06:24:47;;;;;;;21.63;19.53;;;;;;;19.72;97.47;98242.66;5088653;28;20909;-77
2023/08/13 06:27:14;;;;;;;31.17;28.17;;;;;;;19.82;97.64;98242.75;5089284;28;20483;-77
2023/08/13 06:29:42;;;;;;;33.33;29.93;;;;;;;19.64;97.65;98229.34;5089084;28;20442;-77
2023/08/13 06:32:09;;;;;;;32.90;29.80;;;;;;;19.73;97.71;98233.31;5089124;28;20442;-78
2023/08/13 06:34:36;;;;;;;20.57;18.97;;;;;;;19.80;97.45;98236.72;5088885;28;20434;-78
2023/08/13 06:37:03;;;;;;;21.43;19.70;;;;;;;19.82;96.89;98253.75;5089140;28;20481;-78
2023/08/13 06:39:30;;;;;;;25.50;23.33;;;;;;;19.92;97.02;98242.03;5089243;28;21077;-77
2023/08/13 06:41:57;;;;;;;24.80;22.60;;;;;;;19.98;96.80;98252.00;5089075;28;20530;-77
2023/08/13 06:44:24;;;;;;;28.50;25.93;;;;;;;19.94;96.70;98257.19;5088471;28;20530;-77
2023/08/13 06:46:52;;;;;;;30.57;27.60;;;;;;;19.85;96.97;98264.22;5089182;28;20479;-77
2023/08/13 06:49:19;;;;;;;30.20;27.50;;;;;;;19.91;96.97;98257.69;5089021;28;20527;-77
2023/08/13 06:51:45;;;;;;;19.33;17.93;;;;;;;19.91;97.15;98262.38;5088999;28;20504;-77
2023/08/13 06:54:32;;;;;;;31.63;28.70;;;;;;;19.98;97.22;98263.00;5088429;28;20440;-77
2023/08/13 06:57:19;;;;;;;29.80;27.20;;;;;;;20.07;96.54;98266.97;5088513;28;20482;-76
2023/08/13 06:59:45;;;;;;;22.33;20.60;;;;;;;20.06;96.62;98260.63;5091887;28;20454;-75
2023/08/13 07:02:14;;;;;;;23.73;21.83;;;;;;;20.04;97.09;98251.00;5092671;28;20797;-77
2023/08/13 07:04:40;;;;;;;28.50;26.17;;;;;;;19.97;97.23;98267.66;5091863;28;20542;-77
2023/08/13 07:07:07;;;;;;;29.60;27.07;;;;;;;19.93;97.52;98255.53;5092248;28;20466;-77
2023/08/13 07:09:34;;;;;;;24.23;22.53;;;;;;;20.13;97.79;98261.28;5092294;28;21129;-77
2023/08/13 07:12:01;;;;;;;27.37;25.20;;;;;;;20.28;97.20;98265.25;5092333;28;20961;-77
2023/08/13 07:14:28;;;;;;;30.40;27.93;;;;;;;20.40;96.97;98265.97;5091507;28;20479;-77
2023/08/13 07:16:55;;;;;;;22.97;21.17;;;;;;;20.41;96.76;98271.22;5092135;28;20543;-77
2023/08/13 07:19:23;;;;;;;20.57;19.17;;;;;;;20.58;96.98;98268.34;5092189;28;20451;-77
2023/08/13 07:21:49;;;;;;;26.67;24.60;;;;;;;20.71;95.93;98269.84;5092156;28;20468;-77
2023/08/13 07:24:17;;;;;;;19.93;18.53;;;;;;;20.69;95.30;98266.50;5091872;28;20624;-77
2023/08/13 07:26:43;;;;;;;21.70;20.10;;;;;;;20.69;96.09;98272.00;5091931;28;20468;-77
2023/08/13 07:29:10;;;;;;;19.93;18.53;;;;;;;20.50;95.69;98266.06;5092342;28;20444;-77
2023/08/13 07:31:37;;;;;;;16.77;15.53;;;;;;;20.53;95.70;98267.44;5092165;28;20464;-77
2023/08/13 07:34:04;;;;;;;17.17;15.97;;;;;;;20.66;95.34;98265.13;5091553;28;20445;-77
2023/08/13 07:36:32;;;;;;;16.13;15.03;;;;;;;20.77;95.26;98261.38;5091694;28;20994;-77
2023/08/13 07:38:59;;;;;;;18.37;16.97;;;;;;;20.98;94.37;98261.50;5091715;28;20462;-77
2023/08/13 07:41:26;;;;;;;20.40;19.00;;;;;;;20.84;94.82;98260.28;5091714;28;20909;-77
2023/08/13 07:43:53;;;;;;;19.13;17.63;;;;;;;20.86;94.54;98272.69;5091644;28;20514;-77
2023/08/13 07:46:20;;;;;;;19.27;17.77;;;;;;;20.94;94.01;98260.38;5091646;28;20463;-77
2023/08/13 07:48:47;;;;;;;19.80;18.40;;;;;;;20.69;94.45;98264.59;5091356;28;21007;-76
2023/08/13 07:51:15;;;;;;;20.33;18.83;;;;;;;20.87;94.82;98266.09;5091990;28;20449;-76
2023/08/13 07:53:43;;;;;;;17.53;16.20;;;;;;;20.87;93.85;98268.03;5091375;28;20530;-77
2023/08/13 07:56:10;;;;;;;16.43;15.27;;;;;;;21.06;94.03;98275.63;5091153;28;20472;-77
2023/08/13 07:58:36;;;;;;;15.80;14.70;;;;;;;21.20;93.63;98269.66;5091738;28;20499;-77
2023/08/13 08:01:03;;;;;;;16.60;15.40;;;;;;;21.19;93.20;98266.06;5091683;28;20481;-77
2023/08/13 08:03:30;;;;;;;15.07;14.00;;;;;;;20.81;93.52;98261.66;5090578;28;21001;-76
2023/08/13 08:05:57;;;;;;;13.03;12.10;;;;;;;20.95;93.80;98268.38;5090844;28;20546;-76
2023/08/13 08:08:24;;;;;;;13.60;12.60;;;;;;;21.08;92.44;98270.69;5091169;28;20980;-76
2023/08/13 08:10:52;;;;;;;13.00;12.07;;;;;;;21.14;91.75;98266.84;5090477;28;20464;-76
2023/08/13 08:13:18;;;;;;;13.57;12.67;;;;;;;21.13;91.98;98269.88;5091127;28;20482;-76
2023/08/13 08:15:45;;;;;;;13.63;12.60;;;;;;;21.07;92.65;98265.44;5090712;28;20440;-76
2023/08/13 08:18:12;;;;;;;11.13;10.40;;;;;;;21.13;92.89;98261.59;5090832;28;20479;-76
2023/08/13 08:20:39;;;;;;;12.10;11.30;;;;;;;21.33;91.96;98264.56;5090866;28;20445;-76
2023/08/13 08:23:07;;;;;;;12.47;11.57;;;;;;;21.50;91.45;98258.03;5090849;28;20438;-76
2023/08/13 08:25:34;;;;;;;10.70;9.87;;;;;;;21.66;92.10;98248.75;5090393;28;20539;-76
2023/08/13 08:28:01;;;;;;;11.03;10.23;;;;;;;21.94;90.01;98253.00;5090402;28;20793;-76
2023/08/13 08:30:28;;;;;;;9.40;8.77;;;;;;;22.18;88.02;98239.56;5090499;28;20473;-76
2023/08/13 08:32:55;;;;;;;10.07;9.27;;;;;;;22.28;88.48;98239.59;5090772;28;20447;-75
2023/08/13 08:35:22;;;;;;;9.50;8.90;;;;;;;22.50;87.25;98244.88;5090329;28;20804;-76
2023/08/13 08:37:49;;;;;;;8.73;8.10;;;;;;;22.33;86.93;98240.44;5090106;28;21002;-76
2023/08/13 08:40:16;;;;;;;8.73;8.13;;;;;;;22.30;87.31;98229.13;5090290;28;20460;-76
2023/08/13 08:42:43;;;;;;;7.83;7.30;;;;;;;22.57;87.02;98240.75;5090551;28;20446;-76
2023/08/13 08:45:11;;;;;;;8.33;7.67;;;;;;;22.73;85.38;98228.63;5090039;28;20521;-75
2023/08/13 08:47:40;;;;;;;8.60;8.10;;;;;;;22.68;85.17;98233.31;5090490;28;20461;-76
2023/08/13 08:50:11;;;;;;;8.83;8.23;;;;;;;22.52;85.30;98237.97;5090384;28;20448;-76
2023/08/13 08:52:39;;;;;;;7.80;7.30;;;;;;;22.61;85.51;98236.34;5090448;28;20432;-75
2023/08/13 08:55:07;;;;;;;7.13;6.63;;;;;;;22.77;85.36;98240.75;5090284;28;20802;-75
2023/08/13 08:57:34;;;;;;;6.90;6.40;;;;;;;23.01;84.23;98243.81;5089938;28;20477;-75
2023/08/13 09:00:01;;;;;;;6.57;6.07;;;;;;;22.99;84.10;98243.28;5090189;28;20470;-75
2023/08/13 09:02:29;;;;;;;7.77;7.17;;;;;;;23.34;82.84;98241.56;5090142;28;20501;-75
2023/08/13 09:04:56;;;;;;;6.77;6.30;;;;;;;23.07;81.57;98248.22;5089820;28;20493;-75
2023/08/13 09:07:29;;;;;;;6.60;6.10;;;;;;;23.19;81.13;98252.63;5090004;28;20488;-75
2023/08/13 09:09:56;;;;;;;6.20;5.80;;;;;;;23.15;81.31;98251.53;5090179;28;20529;-75
2023/08/13 09:12:23;;;;;;;6.20;5.70;;;;;;;23.35;78.58;98249.56;5089982;28;20476;-76
2023/08/13 09:14:53;;;;;;;5.23;4.83;;;;;;;23.48;78.28;98247.31;5089352;28;20915;-75
2023/08/13 09:17:23;;;;;;;5.37;4.97;;;;;;;23.51;79.42;98250.34;5089517;28;20465;-75
2023/08/13 09:19:51;;;;;;;5.47;4.97;;;;;;;23.69;78.63;98240.66;5089782;28;20537;-75
2023/08/13 09:22:18;;;;;;;5.87;5.43;;;;;;;23.63;77.39;98226.03;5088941;28;20963;-75
2023/08/13 09:24:46;;;;;;;4.47;4.17;;;;;;;23.56;77.47;98235.72;5089732;28;20974;-75
2023/08/13 09:27:13;;;;;;;5.50;5.10;;;;;;;23.69;75.67;98235.97;5089542;28;20541;-76
2023/08/13 09:29:42;;;;;;;5.43;5.03;;;;;;;23.78;77.13;98227.88;5089522;28;20490;-75
2023/08/13 09:32:09;;;;;;;5.20;4.90;;;;;;;24.06;74.69;98209.75;5089619;28;20480;-75
2023/08/13 09:34:36;;;;;;;5.23;4.87;;;;;;;24.22;77.79;98202.22;5089149;28;20793;-75
2023/08/13 09:37:04;;;;;;;5.30;5.00;;;;;;;24.68;75.83;98198.03;5089516;28;20504;-75
2023/08/13 09:39:31;;;;;;;4.90;4.50;;;;;;;25.07;72.59;98188.81;5089830;28;20552;-75
2023/08/13 09:41:59;;;;;;;4.17;3.97;;;;;;;25.33;71.32;98194.94;5089491;28;20455;-76
2023/08/13 09:44:26;;;;;;;4.83;4.43;;;;;;;25.64;69.85;98192.66;5089514;28;20528;-75
2023/08/13 09:46:54;;;;;;;4.60;4.20;;;;;;;25.37;69.00;98188.50;5089527;28;20887;-75
2023/08/13 09:49:22;;;;;;;4.40;4.00;;;;;;;25.37;69.50;98187.66;5089560;28;20445;-75
2023/08/13 09:51:49;;;;;;;4.23;3.70;;;;;;;25.81;69.70;98195.75;5089466;28;20758;-75
2023/08/13 09:54:25;;;;;;;4.33;4.03;;;;;;;26.02;68.82;98191.56;5089452;28;20532;-75
2023/08/13 09:56:59;;;;;;;4.83;4.43;;;;;;;25.95;68.78;98191.16;5089140;28;20499;-75
2023/08/13 09:59:26;;;;;;;4.40;4.00;;;;;;;26.19;68.15;98193.03;5089409;28;20453;-75
2023/08/13 10:01:53;;;;;;;3.90;3.60;;;;;;;26.48;64.43;98195.66;5089229;28;20951;-75
2023/08/13 10:04:20;;;;;;;4.17;3.80;;;;;;;26.78;63.12;98187.66;5088904;28;20961;-75
2023/08/13 10:06:49;;;;;;;4.17;3.87;;;;;;;26.54;64.86;98192.50;5089174;28;20453;-76
2023/08/13 10:09:16;;;;;;;3.97;3.67;;;;;;;26.66;64.12;98187.28;5089499;28;20524;-76
2023/08/13 10:11:44;;;;;;;3.90;3.60;;;;;;;27.59;60.59;98179.81;5089205;28;20843;-75
2023/08/13 10:14:11;;;;;;;4.17;3.80;;;;;;;27.93;58.35;98173.81;5088468;28;20479;-75
2023/08/13 10:16:39;;;;;;;3.50;3.30;;;;;;;28.23;57.89;98188.19;5089328;28;20520;-75
2023/08/13 10:19:07;;;;;;;3.93;3.63;;;;;;;28.79;58.05;98178.47;5089374;28;20501;-75
2023/08/13 10:21:34;;;;;;;3.97;3.67;;;;;;;29.91;54.17;98162.28;5088998;28;20936;-75
2023/08/13 10:24:03;;;;;;;3.10;2.90;;;;;;;30.37;52.00;98170.09;5088846;28;20914;-76
2023/08/13 10:26:30;;;;;;;4.03;3.70;;;;;;;29.73;52.58;98178.16;5088847;28;20976;-76
2023/08/13 10:28:58;;;;;;;3.70;3.40;;;;;;;28.99;55.99;98177.97;5089214;28;20441;-76
2023/08/13 10:31:30;;;;;;;3.60;3.30;;;;;;;28.36;56.89;98187.31;5088971;28;20452;-76
2023/08/13 10:34:02;;;;;;;4.23;3.40;;;;;;;28.10;57.84;98181.47;5090600;28;20472;-76
2023/08/13 10:36:50;;;;;;;3.33;3.13;;;;;;;27.52;57.76;98181.31;5093002;28;20538;-75
2023/08/13 10:39:34;;;;;;;4.07;3.77;;;;;;;27.13;60.99;98174.28;5092618;28;21028;-75
2023/08/13 10:42:03;;;;;;;3.70;3.40;;;;;;;27.10;63.08;98175.72;5092408;28;20500;-76
2023/08/13 10:44:32;;;;;;;3.40;3.20;;;;;;;26.99;63.86;98174.25;5092642;28;20761;-75
2023/08/13 10:46:59;;;;;;;3.93;3.63;;;;;;;27.43;63.17;98172.88;5092491;28;20582;-76
2023/08/13 10:49:28;;;;;;;4.50;4.10;;;;;;;27.69;62.43;98168.47;5092770;28;20477;-75
2023/08/13 10:51:55;;;;;;;3.50;3.30;;;;;;;27.94;61.69;98172.63;5093071;28;20492;-75
2023/08/13 10:54:27;;;;;;;3.93;3.63;;;;;;;27.44;62.27;98171.75;5091916;28;20437;-75
2023/08/13 10:56:55;;;;;;;4.60;4.20;;;;;;;27.50;62.53;98164.94;5092167;28;20479;-75
2023/08/13 10:59:29;;;;;;;3.17;2.97;;;;;;;27.40;62.76;98165.97;5092486;28;20436;-75
2023/08/13 11:02:17;;;;;;;3.20;2.93;;;;;;;27.53;61.93;98166.28;5092744;28;20429;-75
2023/08/13 11:04:44;;;;;;;4.17;3.87;;;;;;;27.26;62.63;98167.94;5092007;28;20441;-75
2023/08/13 11:07:11;;;;;;;4.37;3.97;;;;;;;26.84;64.62;98168.97;5092073;28;20547;-75
2023/08/13 11:09:39;;;;;;;4.07;3.77;;;;;;;26.56;65.69;98175.56;5092359;28;20553;-75
2023/08/13 11:12:09;;;;;;;4.07;3.77;;;;;;;26.71;65.01;98176.09;5092554;28;20605;-75
2023/08/13 11:14:36;;;;;;;3.77;3.47;;;;;;;26.73;64.84;98171.06;5091851;28;20541;-75
2023/08/13 11:17:03;;;;;;;3.80;3.60;;;;;;;26.74;65.05;98172.72;5092022;28;20469;-75
2023/08/13 11:19:31;;;;;;;5.63;5.23;;;;;;;26.03;66.55;98146.06;5091430;28;20475;-75
2023/08/13 11:21:59;;;;;;;4.70;4.30;;;;;;;26.02;67.42;98183.25;5091992;28;20517;-75
2023/08/13 11:24:26;;;;;;;4.87;4.50;;;;;;;25.71;69.11;98184.78;5091457;28;21082;-75